createdAt,value
2022-08-28T00:01:46.149Z,95362.53
2022-08-28T00:04:36.468Z,95355.44
2022-08-28T00:07:22.655Z,95351.13
2022-08-28T00:10:10.620Z,95359.03
2022-08-28T00:12:57.541Z,95349.16
2022-08-28T00:15:43.749Z,95353.50
2022-08-28T00:18:31.450Z,95365.72
2022-08-28T00:21:17.403Z,95350.34
2022-08-28T00:24:03.704Z,95349.59
2022-08-28T00:27:08.272Z,95351.56
2022-08-28T00:29:54.443Z,95339.31
2022-08-28T00:32:40.531Z,95357.47
2022-08-28T00:35:26.774Z,95361.81
2022-08-28T00:38:13.698Z,95355.50
2022-08-28T00:41:03.827Z,95362.59
2022-08-28T00:43:50.643Z,95363.41
2022-08-28T00:46:39.169Z,95356.28
2022-08-28T00:49:29.510Z,95354.72
2022-08-28T00:52:16.198Z,95346.84
2022-08-28T00:55:05.498Z,95351.19
2022-08-28T00:58:05.192Z,95344.50
2022-08-28T01:00:51.364Z,95342.09
2022-08-28T01:03:37.859Z,95351.59
2022-08-28T01:06:24.189Z,95344.50
2022-08-28T01:09:12.280Z,95344.50
2022-08-28T01:12:03.467Z,95354.34
2022-08-28T01:14:52.317Z,95350.00
2022-08-28T01:17:43.084Z,95353.97
2022-08-28T01:20:34.222Z,95351.59
2022-08-28T01:23:44.694Z,95360.22
2022-08-28T01:26:31.512Z,95362.59
2022-08-28T01:29:17.694Z,95365.75
2022-08-28T01:32:05.315Z,95364.19
2022-08-28T01:34:52.864Z,95364.97
2022-08-28T01:37:38.741Z,95357.09
2022-08-28T01:40:33.299Z,95364.19
2022-08-28T01:43:22.231Z,95362.59
2022-08-28T01:46:09.978Z,95358.28
2022-08-28T01:48:55.767Z,95360.25
2022-08-28T01:51:42.109Z,95364.19
2022-08-28T01:54:28.877Z,95366.16
2022-08-28T01:57:14.940Z,95360.22
2022-08-28T02:00:04.283Z,95363.78
2022-08-28T02:02:59.910Z,95357.88
2022-08-28T02:05:46.946Z,95368.13
2022-08-28T02:08:32.906Z,95367.72
2022-08-28T02:11:18.939Z,95370.47
2022-08-28T02:14:05.326Z,95364.94
2022-08-28T02:16:51.294Z,95371.25
2022-08-28T02:19:37.697Z,95365.72
2022-08-28T02:22:24.145Z,95368.88
2022-08-28T02:25:10.673Z,95369.25
2022-08-28T02:27:57.074Z,95361.72
2022-08-28T02:30:43.398Z,95363.34
2022-08-28T02:33:29.569Z,95364.50
2022-08-28T02:36:17.004Z,95364.88
2022-08-28T02:39:03.050Z,95360.94
2022-08-28T02:41:48.756Z,95376.28
2022-08-28T02:44:35.546Z,95374.69
2022-08-28T02:47:21.749Z,95368.03
2022-08-28T02:50:08.959Z,95359.34
2022-08-28T02:52:55.203Z,95367.59
2022-08-28T02:55:41.441Z,95366.03
2022-08-28T02:58:27.614Z,95368.00
2022-08-28T03:01:14.288Z,95356.16
2022-08-28T03:04:03.262Z,95365.59
2022-08-28T03:06:50.645Z,95373.06
2022-08-28T03:09:36.617Z,95370.66
2022-08-28T03:12:27.860Z,95373.81
2022-08-28T03:15:14.379Z,95372.56
2022-08-28T03:18:00.650Z,95363.09
2022-08-28T03:20:47.311Z,95380.41
2022-08-28T03:23:33.441Z,95381.13
2022-08-28T03:26:20.903Z,95375.59
2022-08-28T03:29:06.789Z,95374.00
2022-08-28T03:31:52.967Z,95377.13
2022-08-28T03:34:38.945Z,95380.28
2022-08-28T03:37:31.117Z,95373.19
2022-08-28T03:40:17.640Z,95355.06
2022-08-28T03:43:03.625Z,95380.31
2022-08-28T03:46:00.229Z,95374.81
2022-08-28T03:48:47.379Z,95370.50
2022-08-28T03:51:34.484Z,95368.91
2022-08-28T03:54:20.391Z,95374.84
2022-08-28T03:57:06.553Z,95375.69
2022-08-28T03:59:53.695Z,95388.66
2022-08-28T04:02:43.860Z,95385.91
2022-08-28T04:05:31.793Z,95389.09
2022-08-28T04:08:19.042Z,95377.25
2022-08-28T04:11:05.576Z,95383.56
2022-08-28T04:13:57.222Z,95375.69
2022-08-28T04:16:43.221Z,95386.72
2022-08-28T04:19:40.391Z,95396.88
2022-08-28T04:22:35.901Z,95394.50
2022-08-28T04:25:26.034Z,95401.56
2022-08-28T04:28:12.125Z,95394.44
2022-08-28T04:30:58.404Z,95396.38
2022-08-28T04:33:44.166Z,95401.88
2022-08-28T04:36:30.316Z,95404.25
2022-08-28T04:39:16.215Z,95411.72
2022-08-28T04:42:02.005Z,95401.09
2022-08-28T04:44:48.061Z,95412.50
2022-08-28T04:47:38.016Z,95419.59
2022-08-28T04:50:24.184Z,95418.81
2022-08-28T04:53:10.231Z,95414.47
2022-08-28T04:55:59.135Z,95412.94
2022-08-28T04:58:45.612Z,95414.88
2022-08-28T05:01:31.946Z,95416.47
2022-08-28T05:04:19.696Z,95419.59
2022-08-28T05:07:05.542Z,95429.78
2022-08-28T05:09:54.872Z,95430.97
2022-08-28T05:12:41.047Z,95432.09
2022-08-28T05:15:26.921Z,95422.66
2022-08-28T05:18:14.425Z,95428.91
2022-08-28T05:21:01.900Z,95439.22
2022-08-28T05:23:49.051Z,95434.50
2022-08-28T05:26:36.455Z,95442.78
2022-08-28T05:29:26.375Z,95447.88
2022-08-28T05:32:12.098Z,95458.94
2022-08-28T05:34:57.857Z,95454.25
2022-08-28T05:37:43.642Z,95454.25
2022-08-28T05:40:29.605Z,95457.78
2022-08-28T05:43:17.338Z,95461.34
2022-08-28T05:46:10.566Z,95458.59
2022-08-28T05:49:01.043Z,95462.13
2022-08-28T05:51:48.477Z,95462.13
2022-08-28T05:54:34.315Z,95457.03
2022-08-28T05:57:20.405Z,95464.13
2022-08-28T06:00:10.269Z,95470.06
2022-08-28T06:02:56.432Z,95473.97
2022-08-28T06:05:44.063Z,95478.75
2022-08-28T06:08:32.211Z,95482.69
2022-08-28T06:11:22.450Z,95471.66
2022-08-28T06:14:15.700Z,95473.25
2022-08-28T06:17:02.778Z,95472.44
2022-08-28T06:19:51.799Z,95461.44
2022-08-28T06:22:38.507Z,95464.59
2022-08-28T06:25:24.702Z,95459.50
2022-08-28T06:28:10.681Z,95464.66
2022-08-28T06:31:23.373Z,95464.66
2022-08-28T06:34:11.799Z,95467.84
2022-08-28T06:36:57.923Z,95481.25
2022-08-28T06:39:44.371Z,95473.41
2022-08-28T06:42:31.421Z,95472.66
2022-08-28T06:45:17.350Z,95475.06
2022-08-28T06:48:03.948Z,95471.91
2022-08-28T06:50:52.063Z,95467.22
2022-08-28T06:53:40.178Z,95460.13
2022-08-28T06:56:29.863Z,95463.31
2022-08-28T06:59:15.924Z,95465.69
2022-08-28T07:02:02.751Z,95465.69
2022-08-28T07:04:53.512Z,95464.56
2022-08-28T07:07:39.607Z,95470.47
2022-08-28T07:10:28.712Z,95468.91
2022-08-28T07:13:14.820Z,95466.56
2022-08-28T07:16:01.170Z,95459.47
2022-08-28T07:18:48.633Z,95460.28
2022-08-28T07:21:39.087Z,95465.03
2022-08-28T07:24:25.498Z,95460.31
2022-08-28T07:27:16.968Z,95467.81
2022-08-28T07:30:10.124Z,95459.56
2022-08-28T07:32:56.199Z,95461.50
2022-08-28T07:35:44.218Z,95462.72
2022-08-28T07:38:30.313Z,95465.88
2022-08-28T07:41:30.860Z,95458.00
2022-08-28T07:44:41.525Z,95450.91
2022-08-28T07:47:31.684Z,95457.59
2022-08-28T07:50:18.107Z,95455.69
2022-08-28T07:53:04.535Z,95459.59
2022-08-28T07:55:51.597Z,95453.31
2022-08-28T07:58:38.839Z,95452.91
2022-08-28T08:01:25.905Z,95459.63
2022-08-28T08:04:13.498Z,95461.19
2022-08-28T08:06:59.455Z,95464.34
2022-08-28T08:09:46.723Z,95462.78
2022-08-28T08:12:34.536Z,95454.09
2022-08-28T08:15:21.154Z,95456.44
2022-08-28T08:18:08.494Z,95451.72
2022-08-28T08:20:54.640Z,95454.88
2022-08-28T08:23:42.082Z,95458.78
2022-08-28T08:26:31.576Z,95456.03
2022-08-28T08:29:17.648Z,95458.81
2022-08-28T08:32:07.921Z,95462.72
2022-08-28T08:34:58.540Z,95460.34
2022-08-28T08:37:44.882Z,95447.72
2022-08-28T08:40:31.272Z,95456.03
2022-08-28T08:43:18.662Z,95452.44
2022-08-28T08:46:04.690Z,95446.91
2022-08-28T08:48:51.081Z,95439.81
2022-08-28T08:51:43.313Z,95449.25
2022-08-28T08:54:31.386Z,95440.56
2022-08-28T08:57:21.691Z,95435.81
2022-08-28T09:00:15.066Z,95431.03
2022-08-28T09:03:15.552Z,95438.16
2022-08-28T09:06:04.298Z,95442.84
2022-08-28T09:08:54.744Z,95438.50
2022-08-28T09:11:46.584Z,95430.16
2022-08-28T09:15:09.849Z,95429.75
2022-08-28T09:18:22.566Z,95433.69
2022-08-28T09:21:08.721Z,95440.34
2022-08-28T09:23:55.311Z,95425.66
2022-08-28T09:26:41.684Z,95423.66
2022-08-28T09:30:10.452Z,95425.19
2022-08-28T09:33:01.274Z,95423.19
2022-08-28T09:35:47.631Z,95414.03
2022-08-28T09:38:33.883Z,95413.59
2022-08-28T09:41:38.439Z,95412.78
2022-08-28T09:44:25.370Z,95413.50
2022-08-28T09:47:59.807Z,95414.66
2022-08-28T09:51:03.748Z,95406.28
2022-08-28T09:53:52.634Z,95408.97
2022-08-28T09:56:41.200Z,95401.44
2022-08-28T09:59:29.032Z,95405.28
2022-08-28T10:02:17.877Z,95397.34
2022-08-28T10:05:10.015Z,95398.44
2022-08-28T10:08:04.515Z,95392.06
2022-08-28T10:11:02.449Z,95398.34
2022-08-28T10:14:20.440Z,95390.41
2022-08-28T10:17:13.043Z,95402.94
2022-08-28T10:20:25.019Z,95397.31
2022-08-28T10:23:25.012Z,95383.00
2022-08-28T10:26:34.896Z,95388.41
2022-08-28T10:29:31.723Z,95385.16
2022-08-28T10:32:40.231Z,95385.06
2022-08-28T10:35:44.496Z,95380.22
2022-08-28T10:39:04.982Z,95386.50
2022-08-28T10:41:56.867Z,95379.28
2022-08-28T10:45:06.923Z,95383.91
2022-08-28T10:47:58.166Z,95385.38
2022-08-28T10:50:58.119Z,95386.44
2022-08-28T10:53:56.208Z,95384.78
2022-08-28T10:56:55.980Z,95362.22
2022-08-28T12:20:41.448Z,95294.41
2022-08-28T12:23:33.220Z,95285.13
2022-08-28T12:26:44.959Z,95291.59
2022-08-28T12:29:47.525Z,95282.19
2022-08-28T12:32:48.798Z,95275.97
2022-08-28T12:35:34.800Z,95285.13
2022-08-28T12:38:22.205Z,95282.91
2022-08-28T12:41:20.885Z,95277.31
2022-08-28T12:44:12.750Z,95280.56
2022-08-28T12:46:59.413Z,95286.41
2022-08-28T12:49:45.166Z,95288.22
2022-08-28T12:52:32.872Z,95282.72
2022-08-28T12:55:24.188Z,95285.28
2022-08-28T12:58:34.726Z,95274.91
2022-08-28T13:01:39.002Z,95276.06
2022-08-28T13:04:55.548Z,95264.38
2022-08-28T13:07:50.777Z,95271.13
2022-08-28T13:10:41.816Z,95262.41
2022-08-28T13:13:33.552Z,95265.81
2022-08-28T13:16:36.542Z,95263.28
2022-08-28T13:19:29.542Z,95267.28
2022-08-28T13:22:35.811Z,95258.47
2022-08-28T13:25:24.920Z,95261.56
2022-08-28T13:28:17.771Z,95256.81
2022-08-28T13:31:03.898Z,95255.22
2022-08-28T13:34:24.685Z,95256.47
2022-08-28T13:37:14.750Z,95245.63
2022-08-28T13:40:15.970Z,95241.50
2022-08-28T13:43:11.730Z,95234.88
2022-08-28T13:45:58.128Z,95241.97
2022-08-28T13:48:43.942Z,95234.44
2022-08-28T13:51:29.804Z,95240.47
2022-08-28T13:54:16.249Z,95247.16
2022-08-28T13:57:02.944Z,95248.03
2022-08-28T13:59:52.381Z,95241.16
2022-08-28T14:03:13.052Z,95232.38
2022-08-28T14:05:59.985Z,95235.75
2022-08-28T14:08:47.178Z,95235.09
2022-08-28T14:11:34.390Z,95236.03
2022-08-28T14:14:20.725Z,95236.03
2022-08-28T14:17:08.099Z,95223.38
2022-08-28T14:19:57.732Z,95238.69
2022-08-28T14:22:43.942Z,95222.56
2022-08-28T14:25:31.738Z,95234.88
2022-08-28T14:28:20.165Z,95233.44
2022-08-28T14:31:11.151Z,95237.56
2022-08-28T14:33:58.776Z,95242.31
2022-08-28T14:36:45.946Z,95234.25
2022-08-28T14:39:32.374Z,95242.38
2022-08-28T14:42:19.741Z,95248.88
2022-08-28T14:45:06.867Z,95258.97
2022-08-28T14:47:53.306Z,95255.09
2022-08-28T14:50:44.057Z,95254.41
2022-08-28T14:53:30.300Z,95263.25
2022-08-28T14:56:16.411Z,95255.66
2022-08-28T14:59:04.064Z,95263.38
2022-08-28T15:01:51.250Z,95259.28
2022-08-28T15:04:38.244Z,95269.53
2022-08-28T15:07:24.517Z,95257.19
2022-08-28T15:10:13.798Z,95248.94
2022-08-28T15:13:00.284Z,95251.69
2022-08-28T15:15:46.700Z,95245.09
2022-08-28T15:18:34.502Z,95245.97
2022-08-28T15:21:26.671Z,95251.44
2022-08-28T15:24:15.757Z,95238.72
2022-08-28T15:27:03.633Z,95237.44
2022-08-28T15:29:49.900Z,95231.19
2022-08-28T15:32:36.138Z,95239.53
2022-08-28T15:35:22.269Z,95238.53
2022-08-28T15:38:08.328Z,95254.34
2022-08-28T15:41:17.503Z,95246.44
2022-08-28T15:44:03.379Z,95253.53
2022-08-28T15:47:01.361Z,95254.03
2022-08-28T15:49:56.528Z,95246.31
2022-08-28T15:52:43.114Z,95242.91
2022-08-28T15:55:30.263Z,95240.63
2022-08-28T15:58:16.413Z,95237.09
2022-08-28T16:01:04.120Z,95227.28
2022-08-28T16:03:49.932Z,95230.00
2022-08-28T16:06:36.230Z,95235.19
2022-08-28T16:09:22.395Z,95234.84
2022-08-28T16:12:08.539Z,95242.00
2022-08-28T16:14:54.687Z,95233.69
2022-08-28T16:17:40.771Z,95236.13
2022-08-28T16:20:27.997Z,95240.44
2022-08-28T16:23:14.383Z,95244.00
2022-08-28T16:26:00.643Z,95250.91
2022-08-28T16:28:46.486Z,95255.16
2022-08-28T16:31:34.406Z,95252.59
2022-08-28T16:34:20.371Z,95251.25
2022-08-28T16:37:07.978Z,95257.72
2022-08-28T16:39:56.117Z,95252.31
2022-08-28T16:43:01.110Z,95252.50
2022-08-28T16:45:47.335Z,95251.84
2022-08-28T16:48:33.265Z,95253.50
2022-08-28T16:51:20.372Z,95260.03
2022-08-28T16:54:07.127Z,95254.25
2022-08-28T16:56:53.460Z,95266.69
2022-08-28T16:59:44.706Z,95260.47
2022-08-28T17:02:41.307Z,95258.19
2022-08-28T17:05:27.731Z,95255.97
2022-08-28T17:08:14.676Z,95252.97
2022-08-28T17:11:01.581Z,95248.28
2022-08-28T17:13:50.003Z,95255.59
2022-08-28T17:16:36.177Z,95253.38
2022-08-28T17:19:24.859Z,95264.16
2022-08-28T17:22:29.858Z,95263.09
2022-08-28T17:25:16.165Z,95278.00
2022-08-28T17:28:03.054Z,95285.59
2022-08-28T17:30:49.803Z,95288.56
2022-08-28T17:33:40.724Z,95293.41
2022-08-28T17:36:33.597Z,95305.84
2022-08-28T17:39:21.493Z,95311.53
2022-08-28T17:42:07.584Z,95321.97
2022-08-28T17:44:53.802Z,95317.22
2022-08-28T17:47:40.120Z,95327.66
2022-08-28T17:50:26.807Z,95320.59
2022-08-28T17:53:13.117Z,95334.94
2022-08-28T17:55:59.370Z,95345.41
2022-08-28T17:58:45.653Z,95345.53
2022-08-28T18:01:31.847Z,95358.25
2022-08-28T18:04:23.930Z,95360.34
2022-08-28T18:07:12.542Z,95367.63
2022-08-28T18:10:00.138Z,95383.97
2022-08-28T18:12:47.384Z,95384.06
2022-08-28T18:15:34.039Z,95383.34
2022-08-28T18:18:34.413Z,95395.72
2022-08-28T18:21:23.700Z,95403.38
2022-08-28T18:24:13.243Z,95406.66
2022-08-28T18:26:59.429Z,95406.78
2022-08-28T18:29:46.633Z,95410.03
2022-08-28T18:32:35.522Z,95414.13
2022-08-28T18:35:27.490Z,95422.94
2022-08-28T18:38:35.902Z,95414.34
2022-08-28T18:41:26.934Z,95422.31
2022-08-28T18:44:31.736Z,95424.78
2022-08-28T18:47:18.188Z,95434.41
2022-08-28T18:50:05.994Z,95445.53
2022-08-28T18:52:53.341Z,95450.34
2022-08-28T18:55:39.765Z,95448.09
2022-08-28T18:58:27.589Z,95451.75
2022-08-28T20:12:01.117Z,95500.22
2022-08-28T20:14:47.572Z,95491.88
2022-08-28T20:17:33.677Z,95489.13
2022-08-28T20:20:30.832Z,95490.75
2022-08-28T20:23:18.149Z,95501.78
2022-08-28T20:26:04.498Z,95497.03
2022-08-28T20:28:52.692Z,95502.56
2022-08-28T20:31:40.813Z,95495.44
2022-08-28T20:34:34.338Z,95495.50
2022-08-28T20:37:20.270Z,95502.66
2022-08-28T20:40:09.922Z,95516.91
2022-08-28T20:42:57.171Z,95515.81
2022-08-28T20:45:43.366Z,95519.78
2022-08-28T20:48:29.842Z,95509.13
2022-08-28T20:51:15.801Z,95513.13
2022-08-28T20:54:01.938Z,95515.47
2022-08-28T20:56:48.734Z,95503.66
2022-08-28T20:59:39.710Z,95503.63
2022-08-28T21:02:31.362Z,95513.16
2022-08-28T21:05:19.838Z,95511.56
2022-08-28T21:08:12.372Z,95513.19
2022-08-28T21:10:59.719Z,95515.59
2022-08-28T21:13:45.538Z,95503.34
2022-08-28T21:16:43.977Z,95508.09
2022-08-28T21:19:30.247Z,95511.66
2022-08-28T21:22:54.039Z,95503.81
2022-08-28T21:25:41.248Z,95510.94
2022-08-28T21:28:27.164Z,95516.47
2022-08-28T21:31:30.834Z,95518.09
2022-08-28T21:34:18.989Z,95517.28
2022-08-28T21:37:06.430Z,95513.38
2022-08-28T21:39:53.927Z,95512.16
2022-08-28T21:42:43.138Z,95515.75
2022-08-28T21:45:29.071Z,95513.41
2022-08-28T21:48:15.118Z,95520.16
2022-08-28T21:51:01.305Z,95515.06
2022-08-28T21:53:47.365Z,95519.00
2022-08-28T21:56:33.514Z,95514.28
2022-08-28T21:59:19.774Z,95516.66
2022-08-28T22:02:07.484Z,95513.94
2022-08-28T22:04:53.880Z,95522.25
2022-08-28T22:07:40.481Z,95521.06
2022-08-28T22:10:26.380Z,95525.41
2022-08-28T22:13:13.709Z,95522.25
2022-08-28T22:16:00.011Z,95533.34
2022-08-28T22:18:46.176Z,95519.94
2022-08-28T22:21:59.115Z,95530.97
2022-08-28T22:24:45.197Z,95541.69
2022-08-28T22:27:34.785Z,95536.94
2022-08-28T22:30:21.202Z,95532.59
2022-08-28T22:33:07.230Z,95535.75
2022-08-28T22:35:53.182Z,95528.66
2022-08-28T22:38:40.114Z,95532.63
2022-08-28T22:41:26.258Z,95533.44
2022-08-28T22:44:12.147Z,95525.53
2022-08-28T22:46:58.279Z,95540.56
2022-08-28T22:49:44.312Z,95534.28
2022-08-28T22:52:31.118Z,95545.34
2022-08-28T22:55:55.126Z,95538.25
2022-08-28T22:58:41.720Z,95537.09
2022-08-28T23:01:28.506Z,95540.66
2022-08-28T23:04:14.668Z,95539.09
2022-08-28T23:07:00.573Z,95533.97
2022-08-28T23:09:46.406Z,95535.19
2022-08-28T23:12:34.419Z,95533.25
2022-08-28T23:15:21.929Z,95532.88
2022-08-28T23:18:08.613Z,95533.66
2022-08-28T23:20:55.256Z,95532.88
2022-08-28T23:23:41.957Z,95536.84
2022-08-28T23:26:27.985Z,95540.81
2022-08-28T23:29:14.278Z,95543.19
2022-08-28T23:32:00.487Z,95533.69
2022-08-28T23:34:47.235Z,95536.06
2022-08-28T23:37:33.397Z,95532.94
2022-08-28T23:40:22.534Z,95540.00
2022-08-28T23:43:08.662Z,95534.50
2022-08-28T23:45:55.454Z,95538.47
2022-08-28T23:48:41.796Z,95536.88
2022-08-28T23:51:27.902Z,95538.47
2022-08-28T23:54:13.966Z,95535.31
2022-08-28T23:57:01.583Z,95528.22
2022-08-28T23:59:48.073Z,95536.09
